Wesley, AR (72773)

7:28 PM CST on January 31, 2015 (GMT -0600)
Elkins / Durham | Change Station
CLOSE
Current Station
Personal Weather Station
Location: Fayetteville, AR
Elevation: 1375 ft
Nearby Weather Stations

Elev 1375 ft 35.97 °N, 94.01 °W | Updated 21 seconds ago

Overcast
Overcast
44.6 °F
Feels Like 38 °F
N
13.0
Wind Variable Wind from SE
Gusts 17.4 mph

Today
High -- | Low -- °F
--% Chance of Precip.
Yesterday
High -- | Low -- °F
Precip. -- in
7:17 AM 5:41 PM
Waxing Gibbous, 92% visible
Pressure 30.03 in
Visibility 10.0 miles
Clouds Mostly Cloudy 5000 ft
Mostly Cloudy 6500 ft
Overcast 9500 ft
Windchill 38 °F
Dew Point 26 °F
Humidity 48%
Rainfall 0.00 in
Snow Depth Not available.
UV 0 out of 12
Pollen 3.60 out of 12
Air Quality Not available.
Flu Activity Not available.
METAR KFYV 010053Z 11004KT 10SM BKN050 BKN065 OVC095 07/M03 A3002 RMK AO2 SLP168 T00671028

More Conditions Fewer Conditions

Pressure 30.03 in
Visibility 10.0 miles
Clouds Mostly Cloudy 5000 ft
Mostly Cloudy 6500 ft
Overcast 9500 ft
Windchill 38 °F
Dew Point 26 °F
Humidity 48%
Rainfall 0.00 in
Snow Depth Not available.
UV 0 out of 12
Pollen 3.60 out of 12
Air Quality Not available.
Flu Activity Not available.
METAR KFYV 010053Z 11004KT 10SM BKN050 BKN065 OVC095 07/M03 A3002 RMK AO2 SLP168 T00671028

More Conditions Fewer Conditions

Nowcast | as of 7:17 PM CST on January 31, 2015

At 7:00 PM...National Weather Service Doppler radars continued to detect a large area of light rain or drizzle affecting much of the forecast area. Precipitation amounts had remained very light...with around a hundredth or two per hour. All this activity was moving toward the northeast...around 35 miles per hour. Through 9:00 PM...light rain or drizzle will persist across much of eastern Oklahoma and into portions of northwest Arkansas. Precipitation amounts are expected to remain light...with between a trace to a few hundredths of an inch per hour. Temperatures will remain above freezing...so no frozen precipitation is expected.

×

10-Day Weather Forecast

Almanac

Astronomy

Jan. 31, 2015 Rise Set
Actual Time
Civil Twilight
Nautical Twilight
Astronomical Twilight
Moon
Length of Visible Light
Length of Day
Tomorrow will be .
, % of the Moon is Illuminated

Today's Extremes

State Highs State Lows

Community

WunderPhotos

Upload Photos

1,792,273 photos uploaded!

WunderBlogs® & News

Nearby

Air Quality

  Air Quality AQ Index Pollutant
Not available.

Snow Depth

Station Depth Elevation

Earthquake Activity

City Distance Mag. Time & Date
Minimum magnitude displayed is 2.5.

Coastal Water Temperatures

Place Temperature

Nearby Weather Stations